Latest Weather Observations for Narrandera Airport

IDN60801

Issued at 7:32 pm EST Tuesday 24 May 2016 (issued every 30 minutes, with the page automatically refreshed every 10 minutes)

About weather observations | Map of weather stations | Latest weather observations for NSW | Other Formats
Station Details ID: 074148 Name: NARRANDERA AIRPORT AWS Lat: -34.70 Lon: 146.51 Height: 145.0 m
Data from the previous 72 hours. | See also: Recent months at Narrandera Airport
Date/Time
EST
Temp
°C
App
Temp
°C
Dew
Point
Rel
Hum
%
Delta-T
°C
Wind Press
QNH
hPa
Press
MSL
hPa
Rain
since 9 am
mm
Dir
 
Spd
km/h
Gust
km/h
Spd
kts
Gust
kts
24/07:30pm 7.9 6.7 4.8 81 1.4 CALM 0 0 0 0 1021.1 1021.1 0.0
24/07:00pm 9.4 8.4 5.4 76 1.8 CALM 0 0 0 0 1020.8 1020.8 0.0
24/06:30pm 10.5 9.5 5.7 72 2.2 CALM 0 0 0 0 1020.7 1020.7 0.0
24/06:00pm 12.0 11.0 5.6 65 3.0 CALM 0 0 0 0 1020.5 1020.5 0.0
24/05:30pm 13.5 10.9 6.1 61 3.5 WSW 9 11 5 6 1020.3 1020.3 0.0
24/05:00pm 14.9 12.3 6.2 56 4.2 WSW 9 13 5 7 1020.2 1020.2 0.0
24/04:30pm 15.8 13.2 6.3 53 4.6 SW 9 19 5 10 1020.1 1020.1 0.0
24/04:00pm 16.1 12.4 6.3 52 4.8 WSW 15 22 8 12 1020.2 1020.2 0.0
24/03:30pm 15.9 12.2 6.1 52 4.8 W 15 22 8 12 1020.3 1020.3 0.0
24/03:00pm 15.9 12.5 5.8 51 4.9 WSW 13 20 7 11 1020.3 1020.3 0.0
24/02:30pm 16.5 12.5 6.6 52 4.9 SW 17 30 9 16 1020.2 1020.2 0.0
24/02:00pm 16.3 11.8 5.9 50 5.0 WSW 19 28 10 15 1020.3 1020.3 0.0
24/01:30pm 16.6 11.9 5.9 49 5.2 W 20 32 11 17 1020.7 1020.7 0.0
24/01:00pm 15.7 11.9 5.9 52 4.7 WSW 15 24 8 13 1020.9 1020.9 0.0
24/12:30pm 16.0 12.6 7.5 57 4.3 WSW 15 24 8 13 1021.5 1021.5 0.0
24/12:00pm 15.0 11.3 6.3 56 4.2 SW 15 24 8 13 1022.0 1022.0 0.0
24/11:30am 14.8 11.2 6.6 58 4.0 WSW 15 24 8 13 1022.5 1022.5 0.0
24/11:00am 14.9 11.0 7.2 60 3.8 SW 17 24 9 13 1023.0 1023.0 0.0
24/10:30am 14.3 10.9 7.8 65 3.2 SW 15 20 8 11 1023.2 1023.2 0.0
24/10:00am 13.0 10.9 8.1 72 2.4 WSW 9 15 5 8 1022.9 1022.9 0.0
24/09:30am 11.9 9.4 8.0 77 1.9 WSW 11 15 6 8 1023.0 1023.0 0.0
24/09:00am 10.9 8.4 8.0 82 1.4 WSW 11 13 6 7 1022.7 1022.7 0.0
24/08:30am 9.6 6.9 7.5 87 1.0 WSW 11 17 6 9 1022.9 1022.9 0.0
24/08:00am 8.3 7.5 6.6 89 0.8 CALM 0 0 0 0 1022.6 1022.6 0.0
24/07:30am 7.9 6.3 6.2 89 0.8 SW 4 7 2 4 1022.3 1022.3 0.0
24/07:00am 8.5 6.0 6.6 88 0.9 WSW 9 11 5 6 1022.2 1022.2 0.0
24/06:30am 9.2 6.0 7.0 86 1.0 WSW 13 20 7 11 1022.4 1022.4 0.0
24/06:00am 9.1 5.9 6.7 85 1.1 W 13 15 7 8 1022.1 1022.1 0.0
24/05:30am 9.1 6.6 6.7 85 1.1 W 9 17 5 9 1021.8 1021.8 0.0
24/05:00am 9.1 6.1 6.2 82 1.3 W 11 15 6 8 1021.6 1021.6 0.0
24/04:30am 9.4 6.0 5.9 79 1.6 W 13 17 7 9 1021.4 1021.4 0.0
24/04:00am 10.0 6.7 6.2 77 1.8 WSW 13 22 7 12 1021.2 1021.2 0.0
24/03:30am 10.4 6.7 6.4 76 1.9 WSW 15 26 8 14 1021.3 1021.3 0.0
24/03:00am 6.4 3.0 4.1 85 1.0 NW 11 15 6 8 1021.6 1021.6 0.0
24/02:30am 6.2 2.7 3.5 83 1.1 NW 11 13 6 7 1021.7 1021.7 0.0
24/02:00am 7.2 4.6 4.0 80 1.4 NW 7 11 4 6 1021.8 1021.8 0.0
24/01:30am 6.9 3.4 3.5 79 1.5 NW 11 13 6 7 1021.5 1021.5 0.0
24/01:00am 7.6 3.7 3.5 75 1.8 NW 13 15 7 8 1021.7 1021.7 0.0
24/12:30am 8.5 5.1 4.1 74 1.9 NW 11 15 6 8 1021.9 1021.9 0.0
24/12:00am 8.2 5.2 3.9 74 1.9 WNW 9 13 5 7 1021.7 1021.7 0.0
 
Date/Time
EST
Temp
°C
App
Temp
°C
Dew
Point
Rel
Hum
%
Delta-T
°C
Wind Press
QNH
hPa
Press
MSL
hPa
Rain
since 9 am
mm
Dir
 
Spd
km/h
Gust
km/h
Spd
kts
Gust
kts
23/11:30pm 8.3 4.5 4.1 75 1.8 NW 13 13 7 7 1022.0 1022.0 0.0
23/11:00pm 7.7 3.9 3.7 76 1.7 NW 13 13 7 7 1022.0 1022.0 0.0
23/10:30pm 7.6 4.1 3.5 75 1.8 NW 11 13 6 7 1022.2 1022.2 0.0
23/10:00pm 7.0 3.5 3.3 77 1.6 NW 11 13 6 7 1022.2 1022.2 0.0
23/09:30pm 8.1 5.4 3.6 73 1.9 NW 7 11 4 6 1022.3 1022.3 0.0
23/09:00pm 8.3 5.6 3.8 73 2.0 NW 7 9 4 5 1022.2 1022.2 0.0
23/08:30pm 7.9 4.8 3.8 75 1.8 N 9 11 5 6 1022.2 1022.2 0.0
23/08:00pm 7.8 5.3 3.5 74 1.8 WNW 6 9 3 5 1022.4 1022.4 0.0
23/07:30pm 7.9 4.8 3.6 74 1.9 WNW 9 11 5 6 1022.2 1022.2 0.0
23/07:00pm 9.0 6.3 3.6 69 2.3 NW 7 9 4 5 1022.0 1022.0 0.0
23/06:30pm 10.3 7.2 3.6 63 3.0 WNW 9 11 5 6 1021.8 1021.8 0.0
23/06:00pm 12.7 9.5 3.1 52 4.3 WSW 9 13 5 7 1021.4 1021.4 0.0
23/05:30pm 13.3 9.7 2.8 49 4.7 WSW 11 17 6 9 1020.9 1020.9 0.0
23/05:00pm 14.2 9.8 2.8 46 5.1 SW 15 20 8 11 1020.8 1020.8 0.0
23/04:30pm 15.2 10.5 3.4 45 5.4 WSW 17 28 9 15 1020.7 1020.7 0.0
23/04:00pm 15.4 10.2 3.5 45 5.5 WSW 20 30 11 16 1020.7 1020.7 0.0
23/03:30pm 15.8 10.2 3.3 43 5.7 WSW 22 33 12 18 1020.6 1020.6 0.0
23/03:00pm 16.0 10.1 4.1 45 5.6 WSW 24 37 13 20 1020.4 1020.4 0.0
23/02:30pm 16.5 11.0 3.9 43 5.9 WSW 22 35 12 19 1020.2 1020.2 0.0
23/02:00pm 16.4 10.9 4.1 44 5.8 WSW 22 39 12 21 1020.1 1020.1 0.0
23/01:30pm 16.8 11.5 5.1 46 5.6 WSW 22 35 12 19 1020.3 1020.3 0.0
23/01:00pm 16.3 10.6 5.0 47 5.4 WSW 24 39 13 21 1020.4 1020.4 0.0
23/12:30pm 16.1 9.9 4.5 46 5.5 WSW 26 39 14 21 1020.9 1020.9 0.0
23/12:00pm 15.8 9.6 4.5 47 5.3 WSW 26 43 14 23 1021.2 1021.2 0.0
23/11:30am 15.4 9.8 5.6 52 4.7 WSW 24 41 13 22 1021.6 1021.6 0.0
23/11:00am 15.4 9.0 5.3 51 4.8 W 28 39 15 21 1021.8 1021.8 0.0
23/10:30am 15.1 9.2 5.9 54 4.4 WSW 26 37 14 20 1021.6 1021.6 0.0
23/10:00am 15.0 10.1 7.1 59 3.9 WSW 22 50 12 27 1021.4 1021.4 0.0
23/09:30am 14.7 10.4 7.7 63 3.5 WSW 20 32 11 17 1021.3 1021.3 0.0
23/09:00am 14.3 9.1 7.1 62 3.5 WSW 24 37 13 20 1020.9 1020.9 -
23/08:30am 14.1 9.9 8.1 67 3.0 WSW 20 28 11 15 1020.6 1020.6 -
23/08:00am 14.0 9.3 7.8 66 3.1 WSW 22 37 12 20 1020.2 1020.2 -
23/07:30am 14.6 9.5 7.6 63 3.5 WSW 24 35 13 19 1019.3 1019.4 -
23/07:00am 15.0 10.2 7.5 61 3.7 WSW 22 35 12 19 1018.7 1018.7 -
23/06:30am 15.5 10.4 7.8 60 3.9 WSW 24 46 13 25 1018.2 1018.2 -
23/06:00am 16.4 12.0 10.3 67 3.2 WSW 24 39 13 21 1017.6 1017.6 -
23/05:30am 17.0 13.6 11.3 69 3.1 WSW 20 33 11 18 1016.8 1016.8 -
23/05:07am 17.8 12.6 10.2 61 4.1 W 28 46 15 25 1016.4 1016.4 -
23/05:00am 18.0 12.2 9.6 58 4.4 W 30 46 16 25 1016.3 1016.3 -
23/04:58am 18.1 12.8 9.7 58 4.5 WNW 28 46 15 25 1016.3 1016.3 -
23/04:30am 16.9 13.5 9.3 61 4.0 NW 17 20 9 11 1015.6 1015.6 -
23/04:00am 17.1 14.0 10.2 64 3.7 NW 17 20 9 11 1015.3 1015.3 -
23/03:30am 16.7 14.8 10.5 67 3.3 WNW 11 13 6 7 1015.2 1015.2 -
23/03:00am 17.6 14.6 10.5 63 3.8 NW 17 20 9 11 1015.2 1015.2 0.0
23/02:30am 18.5 14.9 9.8 57 4.6 NNW 19 24 10 13 1014.9 1014.9 -
23/02:00am 19.1 14.6 10.1 56 4.8 N 24 28 13 15 1014.7 1014.7 -
23/01:30am 19.3 14.8 10.0 55 5.0 N 24 32 13 17 1014.8 1014.8 -
23/01:00am 19.3 14.1 10.3 56 4.9 N 28 35 15 19 1015.0 1015.0 -
23/12:30am 19.3 14.6 10.6 57 4.7 N 26 33 14 18 1015.6 1015.6 -
23/12:00am 19.1 14.8 10.6 58 4.6 N 24 33 13 18 1015.9 1015.9 -
 
Date/Time
EST
Temp
°C
App
Temp
°C
Dew
Point
Rel
Hum
%
Delta-T
°C
Wind Press
QNH
hPa
Press
MSL
hPa
Rain
since 9 am
mm
Dir
 
Spd
km/h
Gust
km/h
Spd
kts
Gust
kts
22/11:30pm 19.1 14.1 10.9 59 4.5 N 28 41 15 22 1015.8 1015.8 -
22/11:00pm 18.9 13.8 10.7 59 4.5 N 28 35 15 19 1016.3 1016.3 -
22/10:30pm 19.2 14.6 11.0 59 4.5 N 26 33 14 18 1016.4 1016.4 -
22/10:00pm 19.5 14.8 10.8 57 4.8 N 26 33 14 18 1016.8 1016.8 -
22/09:30pm 18.2 14.9 11.0 63 3.9 NNE 19 22 10 12 1017.1 1017.1 -
22/09:00pm 17.4 14.9 11.0 66 3.5 NNE 15 17 8 9 1017.4 1017.4 0.0
22/08:30pm 16.8 14.6 10.9 68 3.2 NNE 13 15 7 8 1017.4 1017.4 -
22/08:00pm 16.6 14.3 10.5 67 3.3 NE 13 15 7 8 1017.2 1017.2 -
22/07:30pm 15.7 13.9 9.4 66 3.3 NE 9 11 5 6 1017.3 1017.3 -
22/07:00pm 16.2 14.4 9.4 64 3.5 ENE 9 15 5 8 1017.3 1017.3 -
22/06:30pm 17.2 14.9 9.1 59 4.2 ENE 11 13 6 7 1017.1 1017.1 -
22/06:00pm 17.8 16.5 9.2 57 4.5 ENE 6 11 3 6 1017.2 1017.2 -
22/05:30pm 18.8 16.6 9.3 54 5.0 NNE 11 15 6 8 1017.0 1017.0 -
22/05:00pm 21.2 18.6 9.4 47 6.3 N 13 15 7 8 1016.9 1016.9 -
22/04:30pm 23.6 20.6 9.2 40 7.8 N 15 19 8 10 1016.9 1016.9 -
22/04:00pm 24.7 21.2 8.6 36 8.7 N 17 24 9 13 1017.1 1017.1 -
22/03:30pm 24.9 20.8 8.8 36 8.7 N 20 26 11 14 1017.3 1017.3 -
22/03:00pm 25.4 21.7 8.0 33 9.3 N 17 24 9 13 1017.4 1017.4 0.0
22/02:30pm 25.3 21.9 9.2 36 8.8 N 17 24 9 13 1017.7 1017.7 -
22/02:00pm 24.5 20.6 8.5 36 8.6 N 19 24 10 13 1018.1 1018.1 -
22/01:30pm 24.6 21.2 9.0 37 8.5 N 17 20 9 11 1018.5 1018.5 -
22/01:00pm 24.5 20.6 9.3 38 8.3 N 20 28 11 15 1019.0 1019.1 -
22/12:30pm 23.7 19.9 9.7 41 7.7 N 20 26 11 14 1019.4 1019.5 -
22/12:00pm 23.2 19.9 9.6 42 7.4 N 17 30 9 16 1020.1 1020.1 -
22/11:30am 21.9 18.7 10.1 47 6.5 NE 17 20 9 11 1020.6 1020.6 -
22/11:00am 20.9 19.0 10.4 51 5.7 ENE 11 20 6 11 1021.3 1021.3 -
22/10:30am 19.3 17.1 12.1 63 4.0 E 15 19 8 10 1021.5 1021.5 -
22/10:00am 17.5 14.4 11.5 68 3.3 E 19 24 10 13 1021.5 1021.5 -
22/09:30am 16.3 13.8 11.0 71 2.9 ENE 15 20 8 11 1021.9 1021.9 -
22/09:00am 14.5 11.4 10.3 76 2.2 E 17 20 9 11 1022.2 1022.2 0.0
22/08:30am 13.1 10.7 9.9 81 1.7 E 13 17 7 9 1022.3 1022.3 0.0
22/08:00am 11.9 9.0 9.6 86 1.2 E 15 19 8 10 1022.1 1022.1 0.0
22/07:30am 10.5 7.8 9.1 91 0.7 ESE 13 17 7 9 1022.1 1022.1 0.0
22/07:00am 10.3 8.0 8.9 91 0.7 ESE 11 13 6 7 1022.0 1022.0 0.0
22/06:30am 10.4 8.5 9.2 92 0.6 SE 9 11 5 6 1021.8 1021.8 0.0
22/06:00am 10.2 7.8 8.5 89 0.8 E 11 15 6 8 1021.4 1021.4 0.0
22/05:30am 11.1 7.6 8.8 86 1.1 E 17 22 9 12 1021.2 1021.2 0.0
22/05:00am 11.3 7.8 8.9 85 1.2 E 17 22 9 12 1020.8 1020.8 0.0
22/04:30am 11.2 7.4 8.9 86 1.2 E 19 24 10 13 1020.7 1020.7 0.0
22/04:00am 12.0 8.0 9.0 82 1.5 ENE 20 24 11 13 1021.0 1021.0 0.0
22/03:30am 12.2 8.8 9.2 82 1.5 ENE 17 26 9 14 1021.3 1021.3 0.0
22/03:00am 10.4 7.6 8.5 88 0.9 ESE 13 17 7 9 1021.2 1021.2 0.0
22/02:30am 10.8 7.9 8.0 83 1.4 E 13 17 7 9 1021.6 1021.6 0.0
22/02:00am 10.6 8.5 8.4 86 1.1 E 9 11 5 6 1021.7 1021.7 0.0
22/01:30am 10.8 7.9 8.2 84 1.3 ESE 13 17 7 9 1021.9 1021.9 0.0
22/01:00am 10.8 8.4 8.6 86 1.1 E 11 13 6 7 1021.9 1021.9 0.0
22/12:30am 11.2 8.9 8.9 86 1.2 ESE 11 13 6 7 1022.0 1022.0 0.0
22/12:00am 12.4 10.4 10.1 86 1.2 ENE 11 13 6 7 1022.3 1022.3 0.0
 
Date/Time
EST
Temp
°C
App
Temp
°C
Dew
Point
Rel
Hum
%
Delta-T
°C
Wind Press
QNH
hPa
Press
MSL
hPa
Rain
since 9 am
mm
Dir
 
Spd
km/h
Gust
km/h
Spd
kts
Gust
kts
21/11:30pm 11.7 9.9 9.4 86 1.2 ESE 9 11 5 6 1022.5 1022.5 0.0
21/11:00pm 12.4 10.6 9.6 83 1.4 E 9 11 5 6 1022.7 1022.7 0.0
21/10:30pm 12.6 11.8 9.8 83 1.4 E 4 7 2 4 1023.1 1023.1 0.0
21/10:00pm 12.9 11.3 10.1 83 1.4 NE 9 11 5 6 1023.0 1023.0 0.0
21/09:30pm 13.3 11.4 10.5 83 1.5 E 11 13 6 7 1023.1 1023.1 0.0
21/09:00pm 12.8 11.3 10.5 86 1.2 ESE 9 11 5 6 1023.2 1023.2 0.0
21/08:30pm 12.8 11.4 10.9 88 1.0 ESE 9 11 5 6 1023.0 1023.0 0.0
21/08:00pm 12.2 10.7 10.6 90 0.8 SE 9 9 5 5 1022.7 1022.7 0.0

Other Formats:

Comma delimited format used in spreadsheet applications
http://www.bom.gov.au/fwo/IDN60801/IDN60801.95706.axf

JavaScript Object Notation format (JSON) in row-major order
http://www.bom.gov.au/fwo/IDN60801/IDN60801.95706.json